createdAt,value
2018-01-21T00:00:22.111Z,86.19
2018-01-21T00:02:48.814Z,85.87
2018-01-21T00:05:16.181Z,85.90
2018-01-21T00:07:43.518Z,86.01
2018-01-21T00:10:10.169Z,85.91
2018-01-21T00:12:36.773Z,85.80
2018-01-21T00:15:03.385Z,85.62
2018-01-21T00:17:29.972Z,85.83
2018-01-21T00:19:56.589Z,85.58
2018-01-21T00:22:39.482Z,85.51
2018-01-21T00:25:06.075Z,85.61
2018-01-21T00:27:33.401Z,85.71
2018-01-21T00:30:00.027Z,85.92
2018-01-21T00:32:26.618Z,85.86
2018-01-21T00:34:53.185Z,86.11
2018-01-21T00:37:19.801Z,85.86
2018-01-21T00:39:46.498Z,86.00
2018-01-21T00:42:13.068Z,85.81
2018-01-21T00:44:39.667Z,85.81
2018-01-21T00:47:06.249Z,86.00
2018-01-21T00:49:32.902Z,85.64
2018-01-21T00:51:59.482Z,85.54
2018-01-21T00:54:26.143Z,85.62
2018-01-21T00:56:53.730Z,85.35
2018-01-21T00:59:20.301Z,85.32
2018-01-21T01:01:46.880Z,85.33
2018-01-21T01:04:13.547Z,85.15
2018-01-21T01:06:40.138Z,85.07
2018-01-21T01:09:06.725Z,85.06
2018-01-21T01:11:33.317Z,85.11
2018-01-21T01:14:00.642Z,85.07
2018-01-21T01:16:27.238Z,85.25
2018-01-21T01:18:53.840Z,85.18
2018-01-21T01:21:21.174Z,85.43
2018-01-21T01:23:47.735Z,85.10
2018-01-21T01:26:15.023Z,85.07
2018-01-21T01:28:41.625Z,85.01
2018-01-21T01:31:08.944Z,84.83
2018-01-21T01:33:35.515Z,85.15
2018-01-21T01:36:02.092Z,84.93
2018-01-21T01:38:28.694Z,84.96
2018-01-21T01:40:56.111Z,85.11
2018-01-21T01:43:22.685Z,85.05
2018-01-21T01:45:49.267Z,85.14
2018-01-21T01:48:15.874Z,85.06
2018-01-21T01:50:42.455Z,85.19
2018-01-21T01:53:09.069Z,85.44
2018-01-21T01:55:35.637Z,85.19
2018-01-21T01:58:02.210Z,85.13
2018-01-21T02:00:28.807Z,85.08
2018-01-21T02:02:56.165Z,85.04
2018-01-21T02:05:22.734Z,85.29
2018-01-21T02:07:49.314Z,85.14
2018-01-21T02:10:15.876Z,84.95
2018-01-21T02:12:42.494Z,84.86
2018-01-21T02:15:09.076Z,85.03
2018-01-21T02:17:36.430Z,85.04
2018-01-21T02:20:03.742Z,84.46
2018-01-21T02:22:30.362Z,84.31
2018-01-21T02:24:56.935Z,84.48
2018-01-21T02:27:23.516Z,85.03
2018-01-21T02:29:50.145Z,85.15
2018-01-21T02:32:17.433Z,84.83
2018-01-21T02:34:44.038Z,84.70
2018-01-21T02:37:10.587Z,84.96
2018-01-21T02:39:37.205Z,84.66
2018-01-21T02:42:03.876Z,84.57
2018-01-21T02:44:30.462Z,84.70
2018-01-21T02:46:57.038Z,84.72
2018-01-21T02:49:23.615Z,84.72
2018-01-21T02:51:50.210Z,84.67
2018-01-21T02:54:16.767Z,84.38
2018-01-21T02:56:43.346Z,84.41
2018-01-21T02:59:10.664Z,84.62
2018-01-21T03:01:37.226Z,84.68
2018-01-21T03:04:04.537Z,84.63
2018-01-21T03:06:31.103Z,84.45
2018-01-21T03:08:57.778Z,84.24
2018-01-21T03:11:24.345Z,84.40
2018-01-21T03:13:50.921Z,84.90
2018-01-21T03:16:18.234Z,84.74
2018-01-21T03:18:44.890Z,84.95
2018-01-21T03:21:11.463Z,85.12
2018-01-21T03:23:38.793Z,85.39
2018-01-21T03:26:05.393Z,85.32
2018-01-21T03:28:31.962Z,85.21
2018-01-21T03:30:59.271Z,85.10
2018-01-21T03:33:25.878Z,85.33
2018-01-21T03:35:53.177Z,85.26
2018-01-21T03:38:19.795Z,85.23
2018-01-21T03:40:46.379Z,85.31
2018-01-21T03:43:12.928Z,85.37
2018-01-21T03:45:39.622Z,85.41
2018-01-21T03:48:06.207Z,85.24
2018-01-21T03:50:33.524Z,85.16
2018-01-21T03:53:00.133Z,85.17
2018-01-21T03:55:26.733Z,85.02
2018-01-21T03:57:54.130Z,85.25
2018-01-21T04:00:20.769Z,85.16
2018-01-21T04:02:47.345Z,85.03
2018-01-21T04:05:13.917Z,84.84
2018-01-21T04:07:40.451Z,84.85
2018-01-21T04:10:07.099Z,84.98
2018-01-21T04:12:33.689Z,84.94
2018-01-21T04:15:00.329Z,84.86
2018-01-21T04:17:26.933Z,84.73
2018-01-21T04:19:53.614Z,84.64
2018-01-21T04:22:20.161Z,84.64
2018-01-21T04:24:47.498Z,84.47
2018-01-21T04:27:14.056Z,84.46
2018-01-21T04:29:41.378Z,84.70
2018-01-21T04:32:07.933Z,84.88
2018-01-21T04:34:34.490Z,84.90
2018-01-21T04:37:01.059Z,85.01
2018-01-21T04:39:27.652Z,84.61
2018-01-21T04:41:54.973Z,84.57
2018-01-21T04:44:21.583Z,84.85
2018-01-21T04:46:48.145Z,84.79
2018-01-21T04:49:14.693Z,84.72
2018-01-21T04:51:41.256Z,84.76
2018-01-21T04:54:08.563Z,84.97
2018-01-21T04:56:35.117Z,84.99
2018-01-21T04:59:01.685Z,84.99
2018-01-21T05:01:28.245Z,84.91
2018-01-21T05:03:55.805Z,84.56
2018-01-21T05:06:22.378Z,84.73
2018-01-21T05:08:48.942Z,84.87
2018-01-21T05:11:16.289Z,84.99
2018-01-21T05:13:43.586Z,85.14
2018-01-21T05:16:10.166Z,85.04
2018-01-21T05:18:36.733Z,84.82
2018-01-21T05:21:03.320Z,85.31
2018-01-21T05:23:29.872Z,84.87
2018-01-21T05:25:56.434Z,84.86
2018-01-21T05:28:23.739Z,85.12
2018-01-21T05:30:50.334Z,85.30
2018-01-21T05:33:16.905Z,85.39
2018-01-21T05:35:43.463Z,85.33
2018-01-21T05:38:10.090Z,85.41
2018-01-21T05:40:36.673Z,85.76
2018-01-21T05:43:04.012Z,86.22
2018-01-21T05:45:30.609Z,86.30
2018-01-21T05:47:57.169Z,86.40
2018-01-21T05:50:23.801Z,86.70
2018-01-21T05:52:50.351Z,86.67
2018-01-21T05:55:16.916Z,86.65
2018-01-21T05:57:43.505Z,86.24
2018-01-21T06:00:10.107Z,86.12
2018-01-21T06:02:36.696Z,85.86
2018-01-21T06:05:03.351Z,85.64
2018-01-21T06:07:30.694Z,85.52
2018-01-21T06:09:58.025Z,85.38
2018-01-21T06:12:24.577Z,85.60
2018-01-21T06:14:51.887Z,85.35
2018-01-21T06:17:18.442Z,85.29
2018-01-21T06:19:45.093Z,85.07
2018-01-21T06:22:11.702Z,85.37
2018-01-21T06:24:38.245Z,85.36
2018-01-21T06:27:04.890Z,85.68
2018-01-21T06:29:31.486Z,85.89
2018-01-21T06:31:58.142Z,85.95
2018-01-21T06:34:24.721Z,85.90
2018-01-21T06:36:51.374Z,85.81
2018-01-21T06:39:18.737Z,85.80
2018-01-21T06:41:46.060Z,85.88
2018-01-21T06:44:12.660Z,85.99
2018-01-21T06:46:39.218Z,86.08
2018-01-21T06:49:05.789Z,86.33
2018-01-21T06:51:33.104Z,86.34
2018-01-21T06:53:59.658Z,85.91
2018-01-21T06:56:26.248Z,85.89
2018-01-21T06:58:52.808Z,86.00
2018-01-21T07:01:19.381Z,85.91
2018-01-21T07:03:46.677Z,85.70
2018-01-21T07:06:13.267Z,85.35
2018-01-21T07:08:40.546Z,85.21
2018-01-21T07:11:07.109Z,85.47
2018-01-21T07:13:33.699Z,85.63
2018-01-21T07:16:01.041Z,85.31
2018-01-21T07:18:27.606Z,85.39
2018-01-21T07:20:54.325Z,85.71
2018-01-21T07:23:21.661Z,85.59
2018-01-21T07:25:48.309Z,85.82
2018-01-21T07:28:14.885Z,85.77
2018-01-21T07:30:41.490Z,85.65
2018-01-21T07:33:08.766Z,85.37
2018-01-21T07:35:35.350Z,85.32
2018-01-21T07:38:01.953Z,85.67
2018-01-21T07:40:28.524Z,84.64
2018-01-21T07:42:55.179Z,84.54
2018-01-21T07:45:21.761Z,84.46
2018-01-21T07:47:48.378Z,83.87
2018-01-21T07:50:15.729Z,83.89
2018-01-21T07:52:42.302Z,83.67
2018-01-21T07:55:08.976Z,83.55
2018-01-21T07:57:36.913Z,83.12
2018-01-21T08:00:03.863Z,82.99
2018-01-21T08:02:30.480Z,82.70
2018-01-21T08:04:57.073Z,83.06
2018-01-21T08:07:23.690Z,83.35
2018-01-21T08:09:50.274Z,83.27
2018-01-21T08:12:16.850Z,83.29
2018-01-21T08:14:43.398Z,83.15
2018-01-21T08:17:10.042Z,83.06
2018-01-21T08:19:36.702Z,83.09
2018-01-21T08:22:04.036Z,83.13
2018-01-21T08:24:31.385Z,82.87
2018-01-21T08:26:58.045Z,82.89
2018-01-21T08:29:24.666Z,82.86
2018-01-21T08:31:51.251Z,83.17
2018-01-21T08:34:23.957Z,82.67
2018-01-21T08:36:56.542Z,82.18
2018-01-21T08:39:29.085Z,82.46
2018-01-21T08:41:55.742Z,82.56
2018-01-21T08:44:22.316Z,82.11
2018-01-21T08:46:48.934Z,82.10
2018-01-21T08:49:15.592Z,82.23
2018-01-21T08:51:42.231Z,82.06
2018-01-21T08:54:08.837Z,81.91
2018-01-21T08:56:35.517Z,81.63
2018-01-21T08:59:02.834Z,81.65
2018-01-21T09:01:29.426Z,81.21
2018-01-21T09:03:56.022Z,82.03
2018-01-21T09:06:22.603Z,81.79
2018-01-21T09:08:49.202Z,81.22
2018-01-21T09:11:15.833Z,81.53
2018-01-21T09:13:42.407Z,81.86
2018-01-21T09:16:09.001Z,82.14
2018-01-21T09:18:36.361Z,82.34
2018-01-21T09:21:03.010Z,82.13
2018-01-21T09:23:30.332Z,82.17
2018-01-21T09:25:56.909Z,81.81
2018-01-21T09:28:23.589Z,81.66
2018-01-21T09:30:50.183Z,81.68
2018-01-21T09:33:17.526Z,81.59
2018-01-21T09:35:44.913Z,81.30
2018-01-21T09:38:11.526Z,81.39
2018-01-21T09:40:38.877Z,81.54
2018-01-21T09:43:05.505Z,81.16
2018-01-21T09:45:32.150Z,81.20
2018-01-21T09:48:00.442Z,81.12
2018-01-21T09:50:27.097Z,81.20
2018-01-21T09:52:53.653Z,81.00
2018-01-21T09:55:20.353Z,80.91
2018-01-21T09:57:48.223Z,80.83
2018-01-21T10:00:15.554Z,80.73
2018-01-21T10:02:42.165Z,80.33
2018-01-21T10:05:08.759Z,80.26
2018-01-21T10:07:35.337Z,80.16
2018-01-21T10:10:02.040Z,78.99
2018-01-21T10:12:28.642Z,79.05
2018-01-21T10:14:56.029Z,78.89
2018-01-21T10:17:22.645Z,77.72
2018-01-21T10:19:49.237Z,77.73
2018-01-21T10:22:15.855Z,76.62
2018-01-21T10:24:42.517Z,76.25
2018-01-21T10:27:09.096Z,76.95
2018-01-21T10:29:36.461Z,77.68
2018-01-21T10:32:03.798Z,77.53
2018-01-21T10:34:31.121Z,77.53
2018-01-21T10:36:57.696Z,77.30
2018-01-21T10:39:24.333Z,77.63
2018-01-21T10:41:51.744Z,77.21
2018-01-21T10:44:18.309Z,76.92
2018-01-21T10:46:45.635Z,76.63
2018-01-21T10:49:12.558Z,75.65
2018-01-21T10:51:39.197Z,75.49
2018-01-21T10:54:05.782Z,74.19
2018-01-21T10:56:33.161Z,68.26
2018-01-21T10:58:59.810Z,58.40
2018-01-21T11:01:26.408Z,53.32
2018-01-21T11:03:53.055Z,53.13
2018-01-21T11:06:19.614Z,52.99
2018-01-21T11:08:46.250Z,56.99
2018-01-21T11:11:13.592Z,60.02
2018-01-21T11:13:40.890Z,63.05
2018-01-21T11:16:07.469Z,62.68
2018-01-21T11:18:34.057Z,63.61
2018-01-21T11:21:00.719Z,64.99
2018-01-21T11:23:27.294Z,65.14
2018-01-21T11:25:54.633Z,64.66
2018-01-21T11:28:21.279Z,64.38
2018-01-21T11:30:48.716Z,65.62
2018-01-21T11:33:15.326Z,67.25
2018-01-21T11:35:41.892Z,66.28
2018-01-21T11:38:08.521Z,66.47
2018-01-21T11:40:35.139Z,67.33
2018-01-21T11:43:01.718Z,67.85
2018-01-21T11:45:29.088Z,68.76
2018-01-21T11:47:55.710Z,69.49
2018-01-21T11:50:23.057Z,70.21
2018-01-21T11:52:49.701Z,70.20
2018-01-21T11:55:16.352Z,70.27
2018-01-21T11:57:42.982Z,70.12
2018-01-21T12:00:09.639Z,70.27
2018-01-21T12:02:36.290Z,70.25
2018-01-21T12:05:02.911Z,69.67
2018-01-21T12:07:29.524Z,69.62
2018-01-21T12:09:56.882Z,68.94
2018-01-21T12:12:24.235Z,67.97
2018-01-21T12:14:51.592Z,67.21
2018-01-21T12:17:18.210Z,66.92
2018-01-21T12:19:44.877Z,66.76
2018-01-21T12:22:13.035Z,67.36
2018-01-21T12:24:39.830Z,65.63
2018-01-21T12:27:06.449Z,65.84
2018-01-21T12:29:33.008Z,66.53
2018-01-21T12:31:59.594Z,66.87
2018-01-21T12:34:26.905Z,67.59
2018-01-21T12:36:53.478Z,66.91
2018-01-21T12:39:20.880Z,65.14
2018-01-21T12:41:47.580Z,66.24
2018-01-21T12:44:14.921Z,65.29
2018-01-21T12:46:41.493Z,65.46
2018-01-21T12:49:08.093Z,65.34
2018-01-21T12:51:35.445Z,66.04
2018-01-21T12:54:02.780Z,67.20
2018-01-21T12:56:29.368Z,67.49
2018-01-21T12:58:55.980Z,67.06
2018-01-21T13:01:23.293Z,66.75
2018-01-21T13:03:49.963Z,67.53
2018-01-21T13:06:17.273Z,66.13
2018-01-21T13:08:43.856Z,66.30
2018-01-21T13:11:11.317Z,65.06
2018-01-21T13:13:37.893Z,64.94
2018-01-21T13:16:04.589Z,63.82
2018-01-21T13:18:31.919Z,63.41
2018-01-21T13:20:58.507Z,62.09
2018-01-21T13:23:25.086Z,61.06
2018-01-21T13:25:51.685Z,60.77
2018-01-21T13:28:18.299Z,60.24
2018-01-21T13:30:45.699Z,60.47
2018-01-21T13:33:12.374Z,61.18
2018-01-21T13:35:38.977Z,60.38
2018-01-21T13:38:05.574Z,61.51
2018-01-21T13:40:32.155Z,63.26
2018-01-21T13:42:58.726Z,64.39
2018-01-21T13:45:25.398Z,65.79
2018-01-21T13:47:52.770Z,65.70
2018-01-21T13:50:19.450Z,64.45
2018-01-21T13:52:46.031Z,65.77
2018-01-21T13:55:12.683Z,66.44
2018-01-21T13:57:39.342Z,65.94
2018-01-21T14:00:05.913Z,66.42
2018-01-21T14:02:33.283Z,67.16
2018-01-21T14:05:00.614Z,66.93
2018-01-21T14:07:27.965Z,66.77
2018-01-21T14:09:55.591Z,66.49
2018-01-21T14:12:22.240Z,66.18
2018-01-21T14:14:48.811Z,66.23
2018-01-21T14:17:15.453Z,66.28
2018-01-21T14:19:42.076Z,66.83
2018-01-21T14:22:08.745Z,67.36
2018-01-21T14:24:36.107Z,67.43
2018-01-21T14:27:02.713Z,67.18
2018-01-21T14:29:29.329Z,67.48
2018-01-21T14:31:55.905Z,67.17
2018-01-21T14:34:22.525Z,67.85
2018-01-21T14:36:49.130Z,68.50
2018-01-21T14:39:15.758Z,67.58
2018-01-21T14:41:42.466Z,67.88
2018-01-21T14:44:09.029Z,67.84
2018-01-21T14:46:35.626Z,68.47
2018-01-21T14:49:03.005Z,69.36
2018-01-21T14:51:29.599Z,69.40
2018-01-21T14:53:57.008Z,69.78
2018-01-21T14:56:23.624Z,69.86
2018-01-21T14:58:50.226Z,69.86
2018-01-21T15:01:17.565Z,69.75
2018-01-21T15:03:44.189Z,69.27
2018-01-21T15:06:10.766Z,68.57
2018-01-21T15:08:38.161Z,68.20
2018-01-21T15:11:04.813Z,68.05
2018-01-21T15:13:31.422Z,68.86
2018-01-21T15:15:58.888Z,68.91
2018-01-21T15:18:25.482Z,69.42
2018-01-21T15:20:52.817Z,70.04
2018-01-21T15:23:19.496Z,70.47
2018-01-21T15:25:46.082Z,70.07
2018-01-21T15:28:12.694Z,71.79
2018-01-21T15:30:39.273Z,72.21
2018-01-21T15:33:05.865Z,71.67
2018-01-21T15:35:32.706Z,70.99
2018-01-21T15:37:59.318Z,71.26
2018-01-21T15:40:26.612Z,72.28
2018-01-21T15:42:53.545Z,71.29
2018-01-21T15:45:20.142Z,71.77
2018-01-21T15:47:47.474Z,71.60
2018-01-21T15:50:14.407Z,71.30
2018-01-21T15:52:40.994Z,71.77
2018-01-21T15:55:07.570Z,71.16
2018-01-21T15:57:34.194Z,72.39
2018-01-21T16:00:00.807Z,73.31
2018-01-21T16:02:27.484Z,73.74
2018-01-21T16:04:54.078Z,72.06
2018-01-21T16:07:20.719Z,71.22
2018-01-21T16:09:47.344Z,72.00
2018-01-21T16:12:14.768Z,71.93
2018-01-21T16:14:43.081Z,72.47
2018-01-21T16:17:09.676Z,72.59
2018-01-21T16:19:36.249Z,73.49
2018-01-21T16:22:03.606Z,74.12
2018-01-21T16:24:30.249Z,74.14
2018-01-21T16:26:56.855Z,74.14
2018-01-21T16:29:23.449Z,74.03
2018-01-21T16:31:50.115Z,73.54
2018-01-21T16:34:16.694Z,73.92
2018-01-21T16:36:43.322Z,74.43
2018-01-21T16:39:10.037Z,74.25
2018-01-21T16:41:37.138Z,74.24
2018-01-21T16:44:03.775Z,73.93
2018-01-21T16:46:30.392Z,73.65
2018-01-21T16:48:56.988Z,74.54
2018-01-21T16:51:23.597Z,74.59
2018-01-21T16:53:50.208Z,74.57
2018-01-21T16:56:16.816Z,74.86
2018-01-21T16:58:43.494Z,75.41
2018-01-21T17:01:10.124Z,75.38
2018-01-21T17:03:36.727Z,75.57
2018-01-21T17:06:04.111Z,75.60
2018-01-21T17:08:31.446Z,75.59
2018-01-21T17:10:58.822Z,74.42
2018-01-21T17:13:25.394Z,74.17
2018-01-21T17:15:52.743Z,74.55
2018-01-21T17:18:19.352Z,74.63
2018-01-21T17:20:45.946Z,74.70
2018-01-21T17:23:12.522Z,75.38
2018-01-21T17:25:39.175Z,75.94
2018-01-21T17:28:06.366Z,76.04
2018-01-21T17:30:32.976Z,76.44
2018-01-21T17:32:59.583Z,76.53
2018-01-21T17:35:26.168Z,76.56
2018-01-21T17:37:52.769Z,77.14
2018-01-21T17:40:19.404Z,77.45
2018-01-21T17:42:45.969Z,76.97
2018-01-21T17:45:12.661Z,76.22
2018-01-21T17:47:39.252Z,75.80
2018-01-21T17:50:05.856Z,76.75
2018-01-21T17:52:32.567Z,75.88
2018-01-21T17:54:59.874Z,75.85
2018-01-21T17:57:26.475Z,76.15
2018-01-21T17:59:53.089Z,76.59
2018-01-21T18:02:20.450Z,77.34
2018-01-21T18:04:47.742Z,76.93
2018-01-21T18:07:14.391Z,77.07
2018-01-21T18:09:40.961Z,77.27
2018-01-21T18:12:08.295Z,76.66
2018-01-21T18:14:34.990Z,76.86
2018-01-21T18:17:01.593Z,77.16
2018-01-21T18:19:28.936Z,77.43
2018-01-21T18:21:56.291Z,76.24
2018-01-21T18:24:23.730Z,76.49
2018-01-21T18:26:51.078Z,76.38
2018-01-21T18:29:17.684Z,76.36
2018-01-21T18:31:44.266Z,76.31
2018-01-21T18:34:10.871Z,76.07
2018-01-21T18:36:37.551Z,76.18
2018-01-21T18:39:04.208Z,76.33
2018-01-21T18:41:30.823Z,75.51
2018-01-21T18:43:57.463Z,76.09
2018-01-21T18:46:24.829Z,76.82
2018-01-21T18:48:52.181Z,77.63
2018-01-21T18:51:19.665Z,77.99
2018-01-21T18:53:46.324Z,77.99
2018-01-21T18:56:12.947Z,78.02
2018-01-21T18:58:39.538Z,77.82
2018-01-21T19:01:06.142Z,76.18
2018-01-21T19:03:32.773Z,75.46
2018-01-21T19:05:59.389Z,75.33
2018-01-21T19:08:25.997Z,75.02
2018-01-21T19:10:52.623Z,74.66
2018-01-21T19:13:19.234Z,74.73
2018-01-21T19:15:45.919Z,75.39
2018-01-21T19:18:12.617Z,75.88
2018-01-21T19:20:39.227Z,76.51
2018-01-21T19:23:05.911Z,76.27
2018-01-21T19:25:32.526Z,75.57
2018-01-21T19:27:59.246Z,76.31
2018-01-21T19:30:25.871Z,76.57
2018-01-21T19:32:52.514Z,76.63
2018-01-21T19:35:19.218Z,76.76
2018-01-21T19:37:45.893Z,76.87
2018-01-21T19:40:31.573Z,76.81
2018-01-21T19:56:21.440Z,75.45
2018-01-21T19:58:48.046Z,74.89
2018-01-21T20:01:15.425Z,75.51
2018-01-21T20:03:42.078Z,75.25
2018-01-21T20:06:08.728Z,74.72
2018-01-21T20:08:35.348Z,74.72
2018-01-21T20:11:01.991Z,74.48
2018-01-21T20:13:28.631Z,74.57
2018-01-21T20:15:55.209Z,73.88
2018-01-21T20:18:22.586Z,74.03
2018-01-21T20:20:49.256Z,74.41
2018-01-21T20:23:15.839Z,74.35
2018-01-21T20:25:42.478Z,74.34
2018-01-21T20:28:09.185Z,74.42
2018-01-21T20:30:35.805Z,74.84
2018-01-21T20:33:02.454Z,75.58
2018-01-21T20:35:29.048Z,74.88
2018-01-21T20:37:56.417Z,74.67
2018-01-21T20:40:23.016Z,74.77
2018-01-21T20:42:49.590Z,75.23
2018-01-21T20:45:16.941Z,75.19
2018-01-21T20:47:43.573Z,75.05
2018-01-21T20:50:10.918Z,75.49
2018-01-21T20:52:43.617Z,75.71
2018-01-21T20:55:10.278Z,76.36
2018-01-21T20:57:36.894Z,76.42
2018-01-21T21:00:03.634Z,76.20
2018-01-21T21:02:30.229Z,76.26
2018-01-21T21:04:56.859Z,76.73
2018-01-21T21:07:23.427Z,76.53
2018-01-21T21:09:50.728Z,77.36
2018-01-21T21:12:17.454Z,77.59
2018-01-21T21:14:44.066Z,77.87
2018-01-21T21:17:11.370Z,78.20
2018-01-21T21:19:37.945Z,78.50
2018-01-21T21:22:05.272Z,78.68
2018-01-21T21:24:31.830Z,78.77
2018-01-21T21:26:59.186Z,79.00
2018-01-21T21:29:26.554Z,79.72
2018-01-21T21:31:53.186Z,80.35
2018-01-21T21:34:19.794Z,80.60
2018-01-21T21:36:46.381Z,81.03
2018-01-21T21:39:13.075Z,81.10
2018-01-21T21:41:39.679Z,80.99
2018-01-21T21:44:06.269Z,81.08
2018-01-21T21:46:33.003Z,81.32
2018-01-21T21:49:00.329Z,81.54
2018-01-21T21:51:26.934Z,81.04
2018-01-21T21:53:53.554Z,80.44
2018-01-21T21:56:20.170Z,80.27
2018-01-21T21:58:47.646Z,80.67
2018-01-21T22:01:14.237Z,80.95
2018-01-21T22:03:40.836Z,81.08
2018-01-21T22:06:07.498Z,81.08
2018-01-21T22:08:34.097Z,81.26
2018-01-21T22:11:00.865Z,80.64
2018-01-21T22:13:27.500Z,80.89
2018-01-21T22:15:54.063Z,81.12
2018-01-21T22:18:21.440Z,80.80
2018-01-21T22:20:48.746Z,80.79
2018-01-21T22:23:15.302Z,80.74
2018-01-21T22:25:41.881Z,79.06
2018-01-21T22:28:08.450Z,78.54
2018-01-21T22:30:35.070Z,78.35
2018-01-21T22:33:01.929Z,78.58
2018-01-21T22:35:28.498Z,78.29
2018-01-21T22:37:55.842Z,78.55
2018-01-21T22:40:22.449Z,78.77
2018-01-21T22:42:49.094Z,79.00
2018-01-21T22:45:15.678Z,78.90
2018-01-21T22:47:42.992Z,78.90
2018-01-21T22:50:09.609Z,78.64
2018-01-21T22:52:36.163Z,78.66
2018-01-21T22:55:02.784Z,78.45
2018-01-21T22:57:29.339Z,78.61
2018-01-21T22:59:55.932Z,78.42
2018-01-21T23:02:23.310Z,78.51
2018-01-21T23:04:49.910Z,78.34
2018-01-21T23:07:18.070Z,78.32
2018-01-21T23:09:44.617Z,78.41
2018-01-21T23:12:11.220Z,78.89
2018-01-21T23:14:37.825Z,78.85
2018-01-21T23:17:04.435Z,79.09
2018-01-21T23:19:31.834Z,78.94
2018-01-21T23:21:59.489Z,78.58
2018-01-21T23:24:26.058Z,78.31
2018-01-21T23:26:52.628Z,78.58
2018-01-21T23:29:19.956Z,78.84
2018-01-21T23:31:46.558Z,79.13
2018-01-21T23:34:13.106Z,79.03
2018-01-21T23:36:39.689Z,79.08
2018-01-21T23:39:06.262Z,79.27
2018-01-21T23:41:32.855Z,79.52
2018-01-21T23:44:00.186Z,79.52
2018-01-21T23:46:26.719Z,80.11
2018-01-21T23:48:54.182Z,80.80
2018-01-21T23:51:20.774Z,81.23
2018-01-21T23:53:47.317Z,81.03
2018-01-21T23:56:13.897Z,81.43
2018-01-21T23:58:40.493Z,81.90
